Time;durP1;ratioP1;P1;durP2;ratioP2;P2;SDS_P1;SDS_P2;PMS_P1;PMS_P2;Temp;Humidity;BMP_temperature;BMP_pressure;BME280_temperature;BME280_humidity;BME280_pressure;Samples;Min_cycle;Max_cycle;Signal;HPM_P1;HPM_P2
2021/12/24 00:01:12;;;;;;;32.53;14.65;;;;;;;11.14;64.91;100403.63;5010618;28;113797;-64
2021/12/24 00:03:40;;;;;;;30.65;14.30;;;;;;;11.16;64.71;100397.28;4998385;28;124092;-65
2021/12/24 00:06:09;;;;;;;34.28;14.48;;;;;;;11.19;64.81;100396.25;4999450;28;123675;-65
2021/12/24 00:08:37;;;;;;;32.83;14.60;;;;;;;11.21;64.65;100400.56;5009157;28;114967;-65
2021/12/24 00:11:06;;;;;;;30.85;14.20;;;;;;;11.23;64.56;100398.69;4996449;28;114076;-66
2021/12/24 00:13:38;;;;;;;33.15;15.00;;;;;;;11.25;65.13;100401.25;5018158;28;124297;-65
2021/12/24 00:16:16;;;;;;;31.70;14.70;;;;;;;11.28;64.72;100390.44;5015511;28;124022;-64
2021/12/24 00:37:28;;;;;;;23.20;11.65;;;;;;;11.39;64.51;100393.38;5021801;28;123429;-65
2021/12/24 00:40:11;;;;;;;26.83;12.60;;;;;;;11.39;64.61;100385.41;5016476;28;114074;-65
2021/12/24 00:42:43;;;;;;;26.88;13.15;;;;;;;11.39;64.83;100388.06;5003184;28;113303;-65
2021/12/24 00:45:14;;;;;;;26.05;13.07;;;;;;;11.41;64.66;100391.47;5003762;28;123002;-65
2021/12/24 00:47:43;;;;;;;25.15;12.85;;;;;;;11.43;64.73;100386.97;5012404;28;123972;-65
2021/12/24 00:50:15;;;;;;;24.73;12.70;;;;;;;11.45;64.91;100387.75;5008856;28;113993;-65
2021/12/24 00:52:49;;;;;;;25.05;12.90;;;;;;;11.46;64.91;100383.28;5021033;28;114075;-64
2021/12/24 00:55:19;;;;;;;22.55;12.35;;;;;;;11.46;64.70;100378.84;4998499;28;123604;-65
2021/12/24 00:57:50;;;;;;;26.10;12.70;;;;;;;11.49;64.87;100383.97;5020528;28;123860;-66
2021/12/24 01:00:24;;;;;;;24.25;12.23;;;;;;;11.53;64.85;100373.16;5015923;28;113365;-66
2021/12/24 01:02:53;;;;;;;20.98;12.00;;;;;;;11.54;64.88;100369.59;5011332;28;113848;-65
2021/12/24 01:05:23;;;;;;;22.23;12.38;;;;;;;11.55;65.04;100366.00;5015504;28;124616;-65
2021/12/24 01:07:51;;;;;;;21.88;12.02;;;;;;;11.56;64.91;100367.69;4997303;28;123711;-65
2021/12/24 01:10:34;;;;;;;18.98;11.68;;;;;;;11.58;64.92;100366.66;4993798;28;114439;-65
2021/12/24 01:13:02;;;;;;;22.30;11.93;;;;;;;11.58;65.04;100357.84;5018293;28;114228;-65
2021/12/24 01:15:32;;;;;;;22.42;11.85;;;;;;;11.60;64.85;100359.50;5012044;28;124192;-65
2021/12/24 01:18:14;;;;;;;24.48;13.80;;;;;;;11.62;64.83;100359.38;5010274;28;124211;-65
2021/12/24 01:20:52;;;;;;;24.90;13.60;;;;;;;11.63;65.02;100363.75;5017424;28;115442;-65
2021/12/24 01:23:32;;;;;;;25.17;14.68;;;;;;;11.65;64.87;100357.41;4979968;28;114244;-65
2021/12/24 01:26:07;;;;;;;24.73;15.32;;;;;;;11.67;65.02;100354.69;4985469;28;123225;-65
2021/12/24 01:39:51;;;;;;;26.73;14.55;;;;;;;11.74;65.27;100355.19;5016701;28;123949;-65
2021/12/24 01:45:16;;;;;;;29.25;15.88;;;;;;;11.78;65.12;100360.22;5016718;28;114391;-65
2021/12/24 01:47:43;;;;;;;24.70;14.90;;;;;;;11.79;65.04;100354.00;5016325;28;124151;-65
2021/12/24 01:50:12;;;;;;;25.88;15.10;;;;;;;11.81;65.02;100356.53;5000414;28;123365;-65
2021/12/24 01:52:40;;;;;;;25.40;15.13;;;;;;;11.83;65.23;100358.16;5006954;28;113795;-65
2021/12/24 01:55:09;;;;;;;24.02;14.35;;;;;;;11.84;65.04;100362.50;5007092;28;113767;-65
2021/12/24 01:57:38;;;;;;;25.63;15.27;;;;;;;11.86;65.08;100359.78;5018165;28;123558;-65
2021/12/24 02:00:08;;;;;;;26.88;15.43;;;;;;;11.88;65.13;100363.19;5001812;28;123729;-63
2021/12/24 02:02:40;;;;;;;24.80;14.65;;;;;;;11.90;65.00;100360.50;5011456;28;114912;-62
2021/12/24 02:05:09;;;;;;;30.35;15.68;;;;;;;11.91;64.98;100362.22;5015963;28;114161;-64
2021/12/24 02:07:38;;;;;;;28.27;15.43;;;;;;;11.92;65.12;100366.56;5011238;28;124391;-64
2021/12/24 02:10:08;;;;;;;28.10;15.65;;;;;;;11.92;65.00;100359.44;5015342;28;124489;-64
2021/12/24 02:12:36;;;;;;;27.25;15.85;;;;;;;11.94;65.28;100356.72;5000786;28;114818;-64
2021/12/24 02:15:08;;;;;;;29.50;15.88;;;;;;;11.95;65.26;100353.13;5002284;28;114096;-64
2021/12/24 02:28:47;;;;;;;31.65;17.15;;;;;;;12.00;65.36;100351.91;4995434;28;123000;-64
2021/12/24 02:31:18;;;;;;;32.47;17.15;;;;;;;12.03;65.41;100350.84;5000124;28;123231;-64
2021/12/24 02:33:45;;;;;;;30.70;18.10;;;;;;;12.05;65.37;100346.31;5021900;28;114376;-64
2021/12/24 02:36:14;;;;;;;36.33;19.08;;;;;;;12.09;65.45;100345.19;5009099;28;113859;-64
2021/12/24 02:38:42;;;;;;;33.85;18.35;;;;;;;12.12;65.40;100350.31;4989197;28;122348;-65
2021/12/24 02:41:11;;;;;;;37.20;18.90;;;;;;;12.14;65.44;100343.13;5000165;28;123134;-65
2021/12/24 02:43:39;;;;;;;36.80;19.58;;;;;;;12.17;65.27;100342.94;5003244;28;112258;-65
2021/12/24 02:46:14;;;;;;;41.60;20.77;;;;;;;12.17;65.46;100337.63;4995874;28;113264;-63
2021/12/24 02:49:03;;;;;;;39.60;20.80;;;;;;;12.19;65.39;100333.09;5011493;28;122931;-64
2021/12/24 02:54:20;;;;;;;36.63;19.55;;;;;;;12.22;65.35;100335.56;5003908;28;113411;-64
2021/12/24 02:56:53;;;;;;;42.70;20.58;;;;;;;12.24;65.38;100333.66;5021058;28;114107;-64
2021/12/24 02:59:26;;;;;;;41.00;21.05;;;;;;;12.26;65.61;100331.78;5003225;28;127557;-64
2021/12/24 03:01:57;;;;;;;41.00;20.63;;;;;;;12.30;65.70;100329.78;5008087;28;123499;-64
2021/12/24 03:04:26;;;;;;;37.70;20.48;;;;;;;12.32;65.44;100327.91;5012653;28;114329;-64
2021/12/24 03:06:54;;;;;;;36.28;20.00;;;;;;;12.35;65.38;100329.50;5019939;28;114000;-64
2021/12/24 03:09:22;;;;;;;43.67;20.58;;;;;;;12.37;65.56;100322.28;5001017;28;122953;-64
2021/12/24 03:11:51;;;;;;;40.75;20.13;;;;;;;12.39;65.56;100325.69;5016969;28;124322;-64
2021/12/24 03:14:21;;;;;;;40.72;21.27;;;;;;;12.40;65.58;100322.97;5016866;28;113317;-64
2021/12/24 03:16:56;;;;;;;41.67;20.60;;;;;;;12.42;65.50;100322.88;5000910;28;113112;-64
2021/12/24 03:19:29;;;;;;;40.97;20.95;;;;;;;12.43;65.50;100322.78;5001257;28;123810;-64
2021/12/24 03:24:37;;;;;;;43.22;21.63;;;;;;;12.46;65.52;100316.41;5025808;28;113324;-64
2021/12/24 03:27:06;;;;;;;42.13;22.30;;;;;;;12.46;65.50;100316.41;5027273;28;114207;-65
2021/12/24 03:29:34;;;;;;;42.72;21.60;;;;;;;12.47;65.61;100318.13;5009924;28;123059;-65
2021/12/24 03:32:03;;;;;;;40.97;21.88;;;;;;;12.49;65.42;100326.88;5003782;28;122169;-65
2021/12/24 03:34:30;;;;;;;45.08;22.42;;;;;;;12.50;65.49;100322.41;5003053;28;113315;-65
2021/12/24 03:36:58;;;;;;;45.05;21.63;;;;;;;12.52;65.51;100326.66;4998656;28;113212;-67
2021/12/24 03:39:29;;;;;;;45.45;22.55;;;;;;;12.53;65.48;100328.38;5011110;28;123169;-65
2021/12/24 03:41:56;;;;;;;46.03;23.25;;;;;;;12.55;65.53;100337.09;5012947;28;123884;-65
2021/12/24 03:44:32;;;;;;;49.85;23.88;;;;;;;12.56;65.47;100344.09;5024441;28;114333;-65
2021/12/24 03:47:09;;;;;;;48.83;22.83;;;;;;;12.57;65.54;100340.53;5002769;28;114991;-65
2021/12/24 03:49:45;;;;;;;46.72;22.35;;;;;;;12.58;65.57;100347.56;5009781;28;123734;-65
2021/12/24 03:54:58;;;;;;;52.50;23.23;;;;;;;12.61;65.65;100352.66;5004418;28;114290;-65
2021/12/24 03:57:40;;;;;;;47.50;21.67;;;;;;;12.61;65.72;100347.34;5007075;28;114423;-65
2021/12/24 04:00:31;;;;;;;46.47;21.20;;;;;;;12.64;65.61;100347.16;5021318;28;124660;-65
2021/12/24 04:03:24;;;;;;;42.70;20.38;;;;;;;12.64;65.54;100341.00;5014597;28;124520;-65
2021/12/24 04:06:18;;;;;;;40.50;19.85;;;;;;;12.66;65.42;100345.28;5026505;28;115576;-65
2021/12/24 04:09:04;;;;;;;;;;;;;;;12.65;65.40;100343.53;5018140;28;114793;-65
2021/12/24 04:11:48;;;;;;;36.65;18.92;;;;;;;12.68;65.30;100339.00;5004112;28;123413;-65
2021/12/24 04:14:16;;;;;;;42.55;18.38;;;;;;;12.69;65.55;100343.38;5006646;28;123600;-65
2021/12/24 04:16:43;;;;;;;43.92;19.95;;;;;;;12.71;65.63;100330.84;5003045;28;113392;-66
2021/12/24 04:24:56;;;;;;;35.22;17.92;;;;;;;12.74;65.54;100325.34;5009498;28;123626;-65
2021/12/24 04:27:28;;;;;;;38.97;17.95;;;;;;;12.74;65.51;100328.00;4982132;28;113961;-65
2021/12/24 04:30:09;;;;;;;43.25;17.98;;;;;;;12.76;65.53;100334.06;5003087;28;113300;-65
2021/12/24 04:33:04;;;;;;;33.75;17.45;;;;;;;12.77;65.40;100335.75;5003211;28;122481;-66
2021/12/24 04:35:40;;;;;;;32.53;16.08;;;;;;;12.77;65.51;100343.72;5022223;28;123096;-65
2021/12/24 04:51:48;;;;;;;26.98;13.63;;;;;;;12.80;65.51;100341.75;5015948;28;113947;-65
2021/12/24 05:02:57;;;;;;;21.35;9.73;;;;;;;12.82;65.39;100329.22;5018533;28;114243;-65
2021/12/24 05:05:38;;;;;;;18.27;9.77;;;;;;;12.81;65.34;100332.84;5000444;28;122905;-65
2021/12/24 05:10:37;;;;;;;17.17;9.27;;;;;;;12.84;65.46;100323.81;5007612;28;113613;-64
2021/12/24 05:13:09;;;;;;;19.27;9.10;;;;;;;12.84;65.47;100310.50;4999374;28;113247;-65
2021/12/24 05:16:05;;;;;;;18.50;8.57;;;;;;;12.87;65.32;100326.28;5019511;28;124139;-64
2021/12/24 05:21:51;;;;;;;18.02;8.45;;;;;;;12.89;65.34;100335.00;4997216;28;114927;-64
2021/12/24 05:24:21;;;;;;;21.73;7.97;;;;;;;12.89;65.31;100335.00;5004573;28;113374;-64
2021/12/24 05:27:00;;;;;;;19.65;8.30;;;;;;;12.90;65.15;100346.50;5003569;28;123809;-64
2021/12/24 05:29:29;;;;;;;17.60;7.70;;;;;;;12.91;65.19;100338.41;5012186;28;124464;-64
2021/12/24 05:31:56;;;;;;;21.77;8.30;;;;;;;12.91;65.17;100354.38;5006472;28;114201;-63
2021/12/24 05:34:24;;;;;;;17.10;7.82;;;;;;;12.91;65.13;100349.06;5017372;28;114371;-64
2021/12/24 05:36:55;;;;;;;15.48;7.28;;;;;;;12.92;65.14;100350.78;5017159;28;124098;-64
2021/12/24 05:39:23;;;;;;;14.80;8.15;;;;;;;12.93;65.09;100352.47;5009545;28;123701;-64
2021/12/24 05:41:53;;;;;;;13.05;7.45;;;;;;;12.94;65.31;100353.31;5003410;28;114859;-64
2021/12/24 05:44:23;;;;;;;14.68;7.85;;;;;;;12.95;65.07;100355.88;5002712;28;114213;-63
2021/12/24 05:47:03;;;;;;;17.98;7.43;;;;;;;12.95;65.14;100349.72;4999526;28;123935;-63
2021/12/24 05:49:36;;;;;;;17.58;7.50;;;;;;;12.94;65.09;100356.84;5011497;28;123027;-63
2021/12/24 05:52:27;;;;;;;18.40;7.07;;;;;;;12.93;64.79;100357.78;5010680;28;115423;-63
2021/12/24 05:55:17;;;;;;;14.30;7.13;;;;;;;12.93;65.02;100356.94;5018400;28;113895;-63
2021/12/24 05:57:47;;;;;;;16.63;6.90;;;;;;;12.91;64.95;100354.38;5001952;28;124127;-64
2021/12/24 06:00:15;;;;;;;15.38;6.30;;;;;;;12.92;64.93;100361.41;5001327;28;123563;-64
2021/12/24 06:02:47;;;;;;;12.77;6.45;;;;;;;12.92;64.69;100373.81;5004426;28;113492;-64
2021/12/24 06:05:15;;;;;;;14.10;6.32;;;;;;;12.91;64.88;100375.63;5011049;28;113955;-64
2021/12/24 06:07:42;;;;;;;13.73;6.47;;;;;;;12.90;64.71;100373.91;5015656;28;124486;-64
2021/12/24 06:10:10;;;;;;;15.32;6.90;;;;;;;12.89;64.67;100372.22;5011547;28;123731;-64
2021/12/24 06:12:37;;;;;;;18.52;6.28;;;;;;;12.90;64.76;100368.59;5016828;28;114846;-64
2021/12/24 06:15:07;;;;;;;15.75;6.00;;;;;;;12.90;64.75;100373.91;5016166;28;114207;-65
2021/12/24 06:17:37;;;;;;;14.68;6.40;;;;;;;12.89;64.65;100366.91;5014257;28;124193;-64
2021/12/24 06:20:08;;;;;;;15.52;6.03;;;;;;;12.89;64.62;100371.38;5010871;28;123814;-64
2021/12/24 06:22:35;;;;;;;14.77;6.00;;;;;;;12.89;64.55;100368.72;5025646;28;114356;-64
2021/12/24 06:25:03;;;;;;;13.93;6.28;;;;;;;12.88;64.54;100365.19;5002561;28;114929;-64
2021/12/24 06:27:31;;;;;;;14.85;6.18;;;;;;;12.88;64.58;100375.81;5002146;28;124545;-64
2021/12/24 06:29:58;;;;;;;16.42;6.25;;;;;;;12.88;64.63;100386.44;5018142;28;123776;-65
2021/12/24 06:32:26;;;;;;;19.05;6.00;;;;;;;12.86;64.60;100369.75;5017961;28;115066;-65
2021/12/24 06:34:53;;;;;;;14.60;6.10;;;;;;;12.85;64.54;100382.19;5010553;28;116365;-65
2021/12/24 06:37:20;;;;;;;18.40;6.15;;;;;;;12.85;64.49;100376.03;5018655;28;124089;-65
2021/12/24 06:39:48;;;;;;;14.93;5.53;;;;;;;12.85;64.43;100370.72;5015443;28;123677;-65
2021/12/24 06:42:15;;;;;;;15.73;6.10;;;;;;;12.85;64.35;100376.03;5017004;28;114217;-65
2021/12/24 06:44:42;;;;;;;14.45;5.70;;;;;;;12.84;64.48;100369.81;5005193;28;113232;-66
2021/12/24 06:47:10;;;;;;;17.83;5.93;;;;;;;12.83;64.42;100364.63;5015763;28;124138;-66
2021/12/24 06:49:38;;;;;;;16.77;5.43;;;;;;;12.83;64.38;100367.28;5017423;28;124036;-65
2021/12/24 06:52:05;;;;;;;14.55;5.53;;;;;;;12.82;64.35;100365.56;5015490;27;115508;-66
2021/12/24 06:54:33;;;;;;;16.95;5.82;;;;;;;12.81;64.32;100363.88;5020488;28;113513;-65
2021/12/24 06:57:12;;;;;;;12.75;5.85;;;;;;;12.80;64.38;100370.13;5004364;28;123238;-65
2021/12/24 06:59:41;;;;;;;14.50;5.60;;;;;;;12.80;64.25;100372.78;5014178;28;122735;-65
2021/12/24 07:02:08;;;;;;;16.75;5.63;;;;;;;12.80;64.28;100362.16;5009296;28;113918;-65
2021/12/24 07:04:36;;;;;;;18.25;6.10;;;;;;;12.78;64.19;100359.59;5021717;28;114133;-66
2021/12/24 07:07:09;;;;;;;13.93;6.10;;;;;;;12.78;64.25;100369.38;5014006;28;125012;-65
2021/12/24 07:09:42;;;;;;;13.32;6.43;;;;;;;12.77;64.13;100372.97;5023078;28;124212;-65
2021/12/24 07:12:14;;;;;;;14.65;6.05;;;;;;;12.75;64.18;100369.56;5012375;28;114537;-65
2021/12/24 07:14:42;;;;;;;20.00;6.47;;;;;;;12.75;64.22;100380.19;5022491;28;114690;-65
2021/12/24 07:17:09;;;;;;;15.43;5.88;;;;;;;12.75;64.21;100382.84;5010453;28;123943;-65
2021/12/24 07:19:36;;;;;;;16.95;6.10;;;;;;;12.75;64.33;100377.53;5020059;28;123917;-65
2021/12/24 07:22:04;;;;;;;19.58;6.40;;;;;;;12.75;64.12;100370.44;5011267;28;115957;-65
2021/12/24 07:24:31;;;;;;;13.55;6.10;;;;;;;12.74;64.22;100383.81;5021624;28;114987;-65
2021/12/24 07:26:58;;;;;;;13.20;5.63;;;;;;;12.74;64.12;100374.03;5025483;28;123907;-65
2021/12/24 07:29:25;;;;;;;16.50;5.85;;;;;;;12.72;63.93;100369.75;5012414;28;124062;-65
2021/12/24 07:31:53;;;;;;;13.25;5.90;;;;;;;12.72;64.06;100375.06;5022221;28;114193;-66
2021/12/24 07:34:20;;;;;;;15.77;6.28;;;;;;;12.71;63.93;100378.66;5013474;28;113957;-64
2021/12/24 07:36:48;;;;;;;16.73;6.20;;;;;;;12.71;63.95;100381.31;5011353;28;124884;-65
2021/12/24 07:39:16;;;;;;;16.90;6.07;;;;;;;12.69;64.05;100375.25;5015014;28;123913;-65
2021/12/24 07:41:43;;;;;;;12.48;6.10;;;;;;;12.70;64.24;100382.28;4998137;28;114541;-65
2021/12/24 07:44:16;;;;;;;15.77;6.30;;;;;;;12.69;64.10;100375.25;5002633;28;112278;-65
2021/12/24 07:46:51;;;;;;;16.27;6.38;;;;;;;12.68;64.08;100374.41;5011364;28;124454;-65
2021/12/24 07:52:08;;;;;;;17.13;6.57;;;;;;;12.66;64.02;100385.13;5015155;28;114445;-65
2021/12/24 07:54:37;;;;;;;14.85;6.10;;;;;;;12.65;64.01;100386.06;5005438;28;113981;-65
2021/12/24 07:57:06;;;;;;;15.82;6.75;;;;;;;12.66;63.99;100382.47;5018003;28;124686;-65
2021/12/24 07:59:38;;;;;;;14.23;6.53;;;;;;;12.66;64.19;100386.94;5014925;28;123880;-66
2021/12/24 08:02:14;;;;;;;16.83;7.00;;;;;;;12.68;64.15;100395.66;5017303;28;114260;-65
2021/12/24 08:04:43;;;;;;;16.63;6.95;;;;;;;12.65;63.99;100394.03;4999451;28;114332;-65
2021/12/24 08:07:12;;;;;;;16.85;7.20;;;;;;;12.65;64.10;100396.69;5012161;28;123955;-65
2021/12/24 08:09:39;;;;;;;15.93;7.68;;;;;;;12.65;63.86;100396.69;5018646;28;124161;-65
2021/12/24 08:12:10;;;;;;;17.98;7.88;;;;;;;12.64;64.11;100395.00;5008594;28;114414;-65
2021/12/24 08:14:38;;;;;;;23.17;7.28;;;;;;;12.65;64.10;100391.38;5019069;28;114832;-65
2021/12/24 08:17:06;;;;;;;16.13;7.70;;;;;;;12.65;63.97;100394.03;5017851;28;124339;-65
2021/12/24 08:19:33;;;;;;;21.10;7.38;;;;;;;12.65;64.05;100391.38;5008204;28;122660;-65
2021/12/24 08:22:02;;;;;;;18.05;7.15;;;;;;;12.66;63.89;100382.47;5018488;27;114431;-65
2021/12/24 08:24:30;;;;;;;15.93;6.80;;;;;;;12.65;64.09;100386.06;5019006;27;114047;-65
2021/12/24 08:26:57;;;;;;;17.55;7.07;;;;;;;12.65;63.95;100380.75;5011930;28;124344;-65
2021/12/24 08:29:24;;;;;;;16.63;7.05;;;;;;;12.66;64.05;100382.47;5009680;28;124646;-65
2021/12/24 08:31:52;;;;;;;16.95;7.43;;;;;;;12.68;64.11;100385.03;5016090;28;115198;-63
2021/12/24 08:34:20;;;;;;;17.48;7.38;;;;;;;12.68;64.18;100390.34;5013630;27;113731;-64
2021/12/24 08:36:50;;;;;;;20.27;7.80;;;;;;;12.69;63.98;100391.19;4990892;28;124248;-63
2021/12/24 08:39:19;;;;;;;15.40;7.07;;;;;;;12.68;63.87;100381.50;5011158;27;123657;-64
2021/12/24 08:41:52;;;;;;;20.20;6.97;;;;;;;12.69;63.81;100375.25;5010256;28;115516;-64
2021/12/24 08:44:29;;;;;;;14.07;6.65;;;;;;;12.69;63.99;100385.88;5010472;28;114474;-63
2021/12/24 08:47:01;;;;;;;22.02;6.80;;;;;;;12.69;63.87;100391.19;4994571;28;123113;-63
2021/12/24 08:49:29;;;;;;;18.40;6.63;;;;;;;12.68;64.05;100385.03;5009604;28;124021;-64
2021/12/24 08:51:57;;;;;;;15.85;7.13;;;;;;;12.70;63.97;100387.59;4992444;28;114558;-62
2021/12/24 08:54:25;;;;;;;17.45;6.28;;;;;;;12.70;63.87;100392.91;4992526;28;114486;-64
2021/12/24 08:56:53;;;;;;;12.63;6.07;;;;;;;12.71;63.83;100389.28;4994704;28;123273;-64
2021/12/24 08:59:23;;;;;;;22.27;6.50;;;;;;;12.71;64.01;100389.28;5010523;28;123840;-63
2021/12/24 09:01:51;;;;;;;17.02;6.75;;;;;;;12.71;63.67;100378.66;4992199;28;115545;-63
2021/12/24 09:04:19;;;;;;;16.60;6.10;;;;;;;12.71;63.92;100383.97;5012171;28;115374;-63
2021/12/24 09:06:47;;;;;;;17.13;6.35;;;;;;;12.71;63.79;100378.66;5012095;28;124340;-63
2021/12/24 09:09:14;;;;;;;15.90;6.07;;;;;;;12.72;64.13;100375.06;5017435;27;124126;-64
2021/12/24 09:11:43;;;;;;;13.60;6.03;;;;;;;12.72;63.78;100369.75;5009452;28;115225;-63
2021/12/24 09:14:10;;;;;;;18.13;6.78;;;;;;;12.72;63.95;100375.06;4994969;28;112881;-64
2021/12/24 09:16:39;;;;;;;16.10;6.28;;;;;;;12.74;63.91;100378.50;4991000;28;124060;-64
2021/12/24 09:19:11;;;;;;;16.27;6.10;;;;;;;12.74;63.92;100373.19;4994420;28;122572;-63
2021/12/24 09:21:38;;;;;;;20.05;7.22;;;;;;;12.75;63.85;100378.41;5009457;28;114748;-63
2021/12/24 09:24:08;;;;;;;15.82;6.00;;;;;;;12.76;63.95;100379.25;5009650;28;113785;-64
2021/12/24 09:26:36;;;;;;;18.30;5.85;;;;;;;12.76;63.98;100371.28;5009627;28;124507;-65
2021/12/24 09:29:06;;;;;;;16.08;6.05;;;;;;;12.78;63.82;100375.53;5009155;28;124209;-62
2021/12/24 09:31:34;;;;;;;16.25;6.78;;;;;;;12.79;63.67;100373.72;5009018;28;114685;-64
2021/12/24 09:34:01;;;;;;;17.08;6.20;;;;;;;12.78;63.70;100370.22;5010916;28;114892;-65
2021/12/24 09:36:30;;;;;;;15.93;6.80;;;;;;;12.79;63.83;100371.06;5009510;28;124763;-64
2021/12/24 09:39:03;;;;;;;15.70;6.60;;;;;;;12.78;63.64;100369.38;5008399;28;123378;-64
2021/12/24 09:41:30;;;;;;;17.23;6.78;;;;;;;12.78;63.79;100372.03;5009162;28;113275;-64
2021/12/24 09:44:00;;;;;;;21.50;6.45;;;;;;;12.79;63.73;100368.41;5011663;28;113872;-64
2021/12/24 09:46:30;;;;;;;16.90;6.35;;;;;;;12.77;63.73;100371.19;5016176;27;123809;-64
2021/12/24 09:48:58;;;;;;;20.38;7.07;;;;;;;12.77;63.76;100371.19;5011443;27;123883;-64
2021/12/24 09:51:27;;;;;;;17.02;6.65;;;;;;;12.77;63.68;100367.66;5008412;28;115264;-64
2021/12/24 09:53:56;;;;;;;17.35;6.47;;;;;;;12.77;63.74;100362.34;4993218;28;114242;-64
2021/12/24 09:56:24;;;;;;;17.13;7.07;;;;;;;12.75;63.67;100358.91;5024485;27;124031;-65
2021/12/24 09:58:51;;;;;;;18.80;6.80;;;;;;;12.75;63.79;100365.13;5023387;27;124405;-62
2021/12/24 10:01:30;;;;;;;21.00;6.85;;;;;;;12.74;63.63;100354.56;5015040;27;114158;-63
2021/12/24 10:04:12;;;;;;;16.35;7.05;;;;;;;12.75;63.69;100358.91;5008905;28;114489;-63
2021/12/24 10:06:50;;;;;;;17.42;6.53;;;;;;;12.76;63.87;100358.00;5008629;28;124216;-63
2021/12/24 10:09:20;;;;;;;17.17;6.45;;;;;;;12.77;63.86;100359.69;5011463;27;123786;-63
2021/12/24 10:11:50;;;;;;;17.58;6.90;;;;;;;12.78;63.79;100364.06;5010686;28;114371;-64
2021/12/24 10:14:21;;;;;;;13.13;6.50;;;;;;;12.78;63.68;100364.06;5014300;28;114356;-63
2021/12/24 10:16:50;;;;;;;17.13;6.78;;;;;;;12.79;63.80;100361.31;5019606;27;124513;-63
2021/12/24 10:19:19;;;;;;;16.20;6.25;;;;;;;12.81;63.82;100363.88;5009292;28;123751;-63
2021/12/24 10:21:56;;;;;;;13.90;5.95;;;;;;;12.82;63.83;100354.94;4997375;28;113900;-63
2021/12/24 10:24:26;;;;;;;16.67;6.93;;;;;;;12.84;63.82;100359.19;5012423;28;114029;-63
2021/12/24 10:26:56;;;;;;;18.23;6.88;;;;;;;12.86;63.87;100361.75;5016769;28;124117;-63
2021/12/24 10:29:33;;;;;;;20.27;6.55;;;;;;;12.89;63.76;100361.59;5015553;28;124714;-63
2021/12/24 10:32:15;;;;;;;16.70;6.18;;;;;;;12.90;63.74;100352.66;5012720;28;115101;-63
2021/12/24 10:34:44;;;;;;;18.60;6.45;;;;;;;12.92;63.70;100355.22;5016794;28;113911;-63
2021/12/24 10:37:18;;;;;;;16.63;6.07;;;;;;;12.93;63.71;100347.16;5012414;28;124530;-63
2021/12/24 10:39:54;;;;;;;16.42;6.20;;;;;;;12.97;63.79;100348.66;5007601;28;123603;-63
2021/12/24 10:42:27;;;;;;;18.92;6.10;;;;;;;13.04;63.94;100355.31;5007682;28;115253;-63
2021/12/24 10:44:57;;;;;;;15.50;5.57;;;;;;;13.11;64.03;100354.91;5008302;28;114665;-63
2021/12/24 10:47:26;;;;;;;16.83;6.22;;;;;;;13.15;63.82;100351.13;5010552;28;124671;-63
2021/12/24 10:52:56;;;;;;;15.40;5.78;;;;;;;13.22;63.55;100352.41;5010090;28;115107;-63
2021/12/24 10:55:30;;;;;;;16.88;5.72;;;;;;;13.23;63.64;100354.13;5011068;28;114375;-62
2021/12/24 10:57:59;;;;;;;14.60;5.82;;;;;;;13.26;63.72;100351.28;5008022;28;123992;-62
2021/12/24 11:01:00;;;;;;;14.60;5.63;;;;;;;13.25;63.45;100346.91;5008870;28;124225;-63
2021/12/24 11:03:32;;;;;;;12.77;5.53;;;;;;;13.25;63.51;100352.22;5011007;28;114089;-63
2021/12/24 11:06:06;;;;;;;14.68;6.18;;;;;;;13.22;63.48;100347.97;4990719;28;114323;-63
2021/12/24 11:08:34;;;;;;;13.95;5.88;;;;;;;13.22;63.22;100353.28;5007621;28;123901;-63
2021/12/24 11:11:05;;;;;;;13.60;5.65;;;;;;;13.22;63.23;100357.72;4992291;28;123039;-63
2021/12/24 11:13:40;;;;;;;17.08;6.22;;;;;;;13.23;63.41;100359.47;5011122;28;114837;-63
2021/12/24 11:16:11;;;;;;;16.83;5.90;;;;;;;13.23;63.31;100364.78;5008136;28;114128;-63
2021/12/24 11:18:43;;;;;;;15.88;5.97;;;;;;;13.22;63.29;100363.06;5007858;28;124988;-63
2021/12/24 11:21:20;;;;;;;14.25;5.45;;;;;;;13.22;63.21;100363.06;5008169;28;124890;-63
2021/12/24 11:23:48;;;;;;;17.35;6.35;;;;;;;13.22;63.28;100363.06;5009681;28;114264;-63
2021/12/24 11:26:16;;;;;;;18.42;6.63;;;;;;;13.21;63.20;100356.03;5010989;28;114113;-63
2021/12/24 11:28:44;;;;;;;15.90;5.82;;;;;;;13.20;63.20;100355.19;4992058;28;122931;-63
2021/12/24 11:31:19;;;;;;;20.40;6.88;;;;;;;13.21;63.20;100356.03;5007083;28;124663;-63
2021/12/24 11:33:48;;;;;;;;;;;;;;;13.18;63.28;100345.59;5008219;28;115234;-63
2021/12/24 11:36:18;;;;;;;15.57;6.35;;;;;;;13.23;63.15;100348.81;5009332;28;114801;-63
2021/12/24 11:38:48;;;;;;;20.38;6.82;;;;;;;13.21;63.46;100346.25;4994045;28;123089;-63
2021/12/24 11:41:18;;;;;;;15.30;6.55;;;;;;;13.22;63.14;100341.78;5018831;28;123975;-64
2021/12/24 11:43:48;;;;;;;16.10;7.18;;;;;;;13.21;63.13;100340.94;5023520;28;114041;-63
2021/12/24 11:46:18;;;;;;;18.88;6.85;;;;;;;13.21;63.21;100329.44;5020676;28;113733;-63
2021/12/24 11:48:48;;;;;;;16.55;7.03;;;;;;;13.23;63.23;100332.88;5028025;28;123861;-63
2021/12/24 11:51:18;;;;;;;17.67;7.15;;;;;;;13.24;63.26;100339.88;5013952;28;124283;-63
2021/12/24 11:53:46;;;;;;;18.80;7.18;;;;;;;13.24;63.27;100329.22;5010007;28;114842;-63
2021/12/24 11:56:16;;;;;;;19.27;7.10;;;;;;;13.23;63.24;100325.72;5019324;28;113913;-63
2021/12/24 11:58:50;;;;;;;19.55;7.38;;;;;;;13.24;63.31;100323.91;5018507;28;124862;-63
2021/12/24 12:01:25;;;;;;;19.23;7.57;;;;;;;13.27;63.18;100323.72;5002420;28;123297;-63
2021/12/24 12:03:54;;;;;;;17.15;7.22;;;;;;;13.30;63.31;100320.00;5033681;28;114792;-64
2021/12/24 12:06:22;;;;;;;18.13;7.13;;;;;;;13.33;63.16;100323.34;5030918;28;113814;-63
2021/12/24 12:08:50;;;;;;;17.30;6.65;;;;;;;13.36;63.29;100323.16;5030361;28;123981;-63
2021/12/24 12:11:24;;;;;;;17.55;6.60;;;;;;;13.37;63.31;100335.53;5029732;28;124350;-63
2021/12/24 12:14:01;;;;;;;17.23;7.23;;;;;;;13.39;63.09;100322.97;5029077;27;114784;-63
2021/12/24 12:16:48;;;;;;;13.25;6.70;;;;;;;13.41;63.01;100323.72;5005778;27;114039;-63
2021/12/24 12:19:31;;;;;;;18.15;6.85;;;;;;;13.41;63.12;100331.72;5024145;27;124546;-63
2021/12/24 12:22:19;;;;;;;19.80;6.60;;;;;;;13.40;63.01;100324.66;5017669;28;123626;-64
2021/12/24 12:24:57;;;;;;;19.80;6.90;;;;;;;13.41;63.08;100331.72;5015144;27;115304;-64
2021/12/24 12:27:58;;;;;;;16.45;7.30;;;;;;;13.42;63.00;100333.41;5015090;28;114847;-63
2021/12/24 12:30:37;;;;;;;19.98;7.03;;;;;;;13.42;63.06;100328.06;4999614;28;124630;-64
2021/12/24 12:33:06;;;;;;;23.85;7.40;;;;;;;13.44;63.03;100330.66;5016892;28;123993;-64
2021/12/24 12:35:56;;;;;;;20.23;7.32;;;;;;;13.43;62.93;100332.47;5005865;28;114020;-64
2021/12/24 12:38:35;;;;;;;18.50;7.38;;;;;;;13.46;62.98;100327.88;5012576;27;114386;-64
2021/12/24 12:41:35;;;;;;;21.05;8.00;;;;;;;13.46;63.15;100331.41;5016682;27;124671;-64
2021/12/24 12:44:07;;;;;;;19.50;8.35;;;;;;;13.47;62.83;100329.56;5013383;27;124641;-64
2021/12/24 12:46:37;;;;;;;25.52;8.88;;;;;;;13.47;62.91;100334.91;5024692;28;114799;-64
2021/12/24 12:49:11;;;;;;;18.90;8.70;;;;;;;13.44;62.99;100334.16;5023856;27;112938;-64
2021/12/24 12:51:59;;;;;;;21.27;8.38;;;;;;;13.44;62.88;100326.16;5000345;28;124066;-64
2021/12/24 12:54:29;;;;;;;18.77;9.20;;;;;;;13.44;62.76;100320.84;5011203;28;124442;-64
2021/12/24 12:57:22;;;;;;;26.55;9.63;;;;;;;13.43;62.85;100315.66;4998742;28;113432;-64
2021/12/24 13:00:08;;;;;;;23.40;9.32;;;;;;;13.42;62.79;100317.44;5031815;28;114583;-65